Mazeppa, Minnesota
Current Conditions -  °F | °C
As of 10:33 PM on Saturday 25 Oct 2014 (Local Time) from K9MN Reporting Station
Clear Clear  
Wind Chill: 45°   Ceiling: Unl
Heat Index: 49°   Visibility: 10mi
Dew Point: 24°   Wind: 10mph
Humidity: 37%   Direction: 280°W
Pressure: 30.05"   Gusts: NA
Location:  44.27°N, 92.54°W
Report Text: K9MN 260333Z AUTO 28009KT 10SM CLR 10/M04 A3005 RMK AO1 T00961045
Loading
Personal Weather Stations






























Interactive Weather Map
Tropical Storm Tracking
New forecast layout! Learn more

10-Day Weather Forecast

Advertisements
Track Severe Weather on mobile